Burns Flat, Oklahoma
Current Conditions -  °F | °C
As of 3:53 PM on Tuesday 25 Nov 2014 (Local Time) from KCSM Reporting Station
Clear Clear  
Wind Chill: 54°   Ceiling: Unl
Heat Index: 54°   Visibility: 10mi
Dew Point: 20°   Wind: 17mph
Humidity: 26%   Direction: 200°SSW
Pressure: 30.1"   Gusts: NA
Location:  35.35°N, 99.17°W
Report Text: KCSM 252153Z 20015KT 10SM CLR 12/M07 A3010 RMK AO2 SLP194 T01221067
Loading
Personal Weather Stations






























Interactive Weather Map New forecast layout! Learn more

10-Day Weather Forecast

Advertisements
Track Severe Weather on mobile